Time;durP1;ratioP1;P1;durP2;ratioP2;P2;SDS_P1;SDS_P2;PMS_P1;PMS_P2;Temp;Humidity;BMP_temperature;BMP_pressure;BME280_temperature;BME280_humidity;BME280_pressure;Samples;Min_cycle;Max_cycle;Signal;HPM_P1;HPM_P2
2021/12/13 00:02:02;;;;;;;;;17.25;14.00;;;;;10.92;76.42;102392.94;5004827;28;46755;-72
2021/12/13 00:04:39;;;;;;;;;15.50;14.75;;;;;10.81;76.81;102374.72;5005514;28;45309;-72
2021/12/13 00:07:23;;;;;;;;;16.25;15.25;;;;;10.87;77.35;102390.91;5005030;28;45524;-72
2021/12/13 00:09:52;;;;;;;;;19.00;17.25;;;;;10.81;76.76;102377.38;5005497;28;45457;-72
2021/12/13 00:12:25;;;;;;;;;15.50;13.75;;;;;10.79;77.05;102371.13;5004445;28;45359;-72
2021/12/13 00:14:52;;;;;;;;;16.75;14.25;;;;;10.86;76.89;102374.09;5005278;28;45409;-72
2021/12/13 00:17:26;;;;;;;;;16.00;13.50;;;;;10.61;77.06;102327.06;5004528;28;45416;-72
2021/12/13 00:20:05;;;;;;;;;13.75;13.50;;;;;10.84;76.23;102365.22;5020755;28;47019;-72
2021/12/13 00:22:42;;;;;;;;;19.50;16.00;;;;;10.78;76.86;102358.69;5004640;28;45475;-72
2021/12/13 00:25:13;;;;;;;;;13.25;10.25;;;;;10.81;76.55;102362.44;4993675;28;45456;-72
2021/12/13 00:27:48;;;;;;;;;16.25;11.75;;;;;10.69;77.04;102343.28;4994802;28;45280;-72
2021/12/13 00:30:25;;;;;;;;;12.50;11.50;;;;;10.81;76.73;102361.50;5020634;28;46745;-72
2021/12/13 00:33:09;;;;;;;;;12.00;12.00;;;;;10.80;77.24;102365.88;4998081;28;46761;-73
2021/12/13 00:36:02;;;;;;;;;14.00;12.00;;;;;10.78;76.46;102350.78;5004881;28;45259;-72
2021/12/13 00:38:30;;;;;;;;;14.00;13.75;;;;;10.67;77.21;102345.88;4999867;28;45420;-72
2021/12/13 00:41:09;;;;;;;;;16.75;12.75;;;;;10.75;76.59;102364.75;5004296;28;45294;-73
2021/12/13 00:43:59;;;;;;;;;13.00;12.00;;;;;10.69;76.79;102340.66;5002176;28;46390;-73
2021/12/13 00:46:28;;;;;;;;;12.50;11.25;;;;;10.68;77.02;102349.44;5019578;28;45326;-73
2021/12/13 00:48:57;;;;;;;;;13.25;11.00;;;;;10.62;77.05;102342.09;5005161;28;45377;-73
2021/12/13 00:51:27;;;;;;;;;11.00;11.00;;;;;10.73;76.70;102362.03;4998396;28;46258;-73
2021/12/13 00:53:59;;;;;;;;;12.25;10.25;;;;;10.58;76.17;102345.41;5004351;28;46231;-73
2021/12/13 00:56:46;;;;;;;;;10.75;9.75;;;;;10.71;76.90;102363.69;5001457;28;45607;-73
2021/12/13 00:59:39;;;;;;;;;7.00;7.00;;;;;10.72;77.02;102369.88;5003898;28;45472;-73
2021/12/13 01:02:16;;;;;;;;;13.00;10.50;;;;;10.59;77.00;102349.91;5004171;28;45568;-73
2021/12/13 01:04:57;;;;;;;;;13.75;13.00;;;;;10.70;77.19;102372.47;5004786;28;46119;-73
2021/12/13 01:07:54;;;;;;;;;13.50;11.00;;;;;10.72;76.55;102368.16;5004054;28;45333;-73
2021/12/13 01:10:48;;;;;;;;;10.00;10.00;;;;;10.71;76.79;102369.00;5003970;28;45394;-72
2021/12/13 01:13:25;;;;;;;;;12.50;11.25;;;;;10.72;76.80;102368.16;5001294;28;45471;-73
2021/12/13 01:16:09;;;;;;;;;13.75;11.75;;;;;10.60;76.47;102342.84;5001044;28;45435;-73
2021/12/13 01:22:25;;;;;;;;;8.25;8.00;;;;;10.59;77.08;102336.66;5001000;28;45456;-73
2021/12/13 01:27:39;;;;;;;;;11.50;4.25;;;;;10.66;76.33;102354.63;5000549;28;45432;-73
2021/12/13 01:30:11;;;;;;;;;10.00;8.25;;;;;10.62;76.60;102344.75;5005621;28;45308;-73
2021/12/13 01:32:41;;;;;;;;;13.50;10.75;;;;;10.67;77.26;102348.53;5000671;28;45345;-73
2021/12/13 01:35:14;;;;;;;;;10.25;10.25;;;;;10.69;77.08;102352.13;5016684;28;46200;-73
2021/12/13 01:37:41;;;;;;;;;11.75;8.00;;;;;10.71;76.83;102346.94;5000265;28;45428;-72
2021/12/13 01:40:11;;;;;;;;;11.25;8.00;;;;;10.72;76.52;102352.28;5001059;28;45396;-73
2021/12/13 01:42:36;;;;;;;;;9.50;7.50;;;;;10.72;77.19;102368.16;5000515;28;45424;-73
2021/12/13 01:45:12;;;;;;;;;13.00;10.50;;;;;10.64;77.32;102351.03;5001271;28;45414;-73
2021/12/13 01:47:45;;;;;;;;;7.50;7.50;;;;;10.74;76.47;102368.25;5000426;28;45567;-72
2021/12/13 01:50:16;;;;;;;;;9.50;6.00;;;;;10.68;76.95;102352.97;5005124;28;45476;-73
2021/12/13 01:52:43;;;;;;;;;12.75;10.00;;;;;10.78;77.05;102367.53;4995933;28;45421;-73
2021/12/13 01:55:15;;;;;;;;;11.00;10.00;;;;;10.78;76.29;102375.47;5003996;28;45585;-73
2021/12/13 01:57:47;;;;;;;;;10.00;6.75;;;;;10.78;77.13;102374.56;5000336;28;46640;-73
2021/12/13 02:01:08;;;;;;;;;10.00;9.00;;;;;10.64;76.74;102344.81;5001094;28;45274;-73
2021/12/13 02:03:20;;;;;;;;;9.50;9.50;;;;;10.66;77.21;102354.63;5000761;28;45318;-72
2021/12/13 02:05:47;;;;;;;;;11.00;11.00;;;;;10.75;77.88;102367.41;5000266;28;45279;-73
2021/12/13 02:08:16;;;;;;;;;10.25;9.75;;;;;10.73;76.73;102369.97;5000255;28;46936;-73
2021/12/13 02:10:56;;;;;;;;;10.75;10.00;;;;;10.63;76.33;102351.84;4999742;28;45525;-73
2021/12/13 02:13:39;;;;;;;;;12.25;10.25;;;;;10.75;77.07;102373.63;5000093;28;45340;-72
2021/12/13 02:18:53;;;;;;;;;12.00;10.25;;;;;10.75;76.37;102362.09;5000569;28;45229;-73
2021/12/13 02:21:32;;;;;;;;;13.50;11.25;;;;;10.72;76.83;102359.31;5000009;28;46089;-73
2021/12/13 02:24:03;;;;;;;;;11.25;10.00;;;;;10.79;76.46;102373.75;4992601;28;45308;-73
2021/12/13 02:26:30;;;;;;;;;11.50;10.25;;;;;10.73;77.11;102363.78;4999532;28;47587;-73
2021/12/13 02:29:08;;;;;;;;;12.25;11.25;;;;;10.71;77.03;102365.44;5000387;28;46217;-72
2021/12/13 02:31:38;;;;;;;;;10.75;10.25;;;;;10.75;76.66;102377.97;4998665;28;45274;-73
2021/12/13 02:34:12;;;;;;;;;10.00;8.25;;;;;10.74;77.15;102371.78;5000598;28;45329;-73
2021/12/13 02:36:43;;;;;;;;;8.25;8.25;;;;;10.78;77.33;102371.94;4999513;28;45390;-72
2021/12/13 02:39:16;;;;;;;;;14.25;11.25;;;;;10.81;77.09;102372.06;5003779;28;45466;-71
2021/12/13 02:41:45;;;;;;;;;11.75;11.00;;;;;10.80;76.72;102368.53;5008104;28;45422;-71
2021/12/13 02:44:16;;;;;;;;;10.00;10.00;;;;;10.77;77.35;102370.13;5000194;28;45290;-71
2021/12/13 02:46:42;;;;;;;;;11.25;9.25;;;;;10.79;77.25;102373.75;4999519;28;45251;-73
2021/12/13 02:49:12;;;;;;;;;11.75;10.00;;;;;10.73;76.62;102355.84;4999962;28;45222;-73
2021/12/13 02:51:47;;;;;;;;;12.00;9.50;;;;;10.69;77.56;102354.78;4999681;28;45298;-71
2021/12/13 02:54:16;;;;;;;;;12.50;10.00;;;;;10.78;77.30;102362.25;5015407;28;45554;-73
2021/12/13 02:56:58;;;;;;;;;4.00;2.00;;;;;10.79;77.38;102369.38;4999029;28;45267;-73
2021/12/13 02:59:26;;;;;;;;;15.00;10.25;;;;;10.75;76.81;102363.03;5000070;28;45481;-73
2021/12/13 03:02:04;;;;;;;;;8.25;6.75;;;;;10.80;77.23;102372.91;4999322;28;45304;-73
2021/12/13 03:04:30;;;;;;;;;11.75;11.00;;;;;10.76;76.17;102353.34;4999959;28;45222;-72
2021/12/13 03:07:05;;;;;;;;;12.00;12.00;;;;;10.69;77.03;102353.88;4999246;28;45593;-71
2021/12/13 03:09:33;;;;;;;;;10.00;10.00;;;;;10.68;77.25;102352.97;5014781;28;48123;-71
2021/12/13 03:12:00;;;;;;;;;12.00;11.50;;;;;10.67;76.62;102344.94;4998897;28;45447;-73
2021/12/13 03:14:35;;;;;;;;;12.75;11.25;;;;;10.72;76.53;102368.16;5015030;28;45422;-71
2021/12/13 03:17:19;;;;;;;;;12.00;9.75;;;;;10.60;77.06;102341.13;4999229;28;45494;-71
2021/12/13 03:20:15;;;;;;;;;12.25;9.25;;;;;10.65;76.52;102346.63;4999556;28;46306;-71
2021/12/13 03:22:59;;;;;;;;;12.50;10.00;;;;;10.75;77.43;102367.41;4998727;28;45489;-71
2021/12/13 03:25:27;;;;;;;;;13.50;12.00;;;;;10.74;77.37;102368.25;4999641;28;45458;-71
2021/12/13 03:28:02;;;;;;;;;12.00;11.00;;;;;10.66;76.65;102351.97;4998953;28;45238;-72
2021/12/13 03:30:32;;;;;;;;;12.00;10.50;;;;;10.70;77.15;102346.03;5014668;28;46967;-73
2021/12/13 03:33:10;;;;;;;;;16.25;11.75;;;;;10.62;76.84;102331.53;4999167;28;45258;-71
2021/12/13 03:35:56;;;;;;;;;11.25;10.00;;;;;10.63;76.76;102333.31;5013524;28;45386;-72
2021/12/13 03:38:33;;;;;;;;;10.75;10.50;;;;;10.61;76.86;102336.72;5014126;28;46426;-72
2021/12/13 03:41:04;;;;;;;;;11.25;10.50;;;;;10.62;76.75;102328.88;4998369;28;45305;-72
2021/12/13 03:43:39;;;;;;;;;9.50;8.25;;;;;10.67;76.71;102337.94;4995620;28;45443;-72
2021/12/13 03:46:07;;;;;;;;;10.50;8.50;;;;;10.63;76.13;102338.63;4986692;28;45754;-72
2021/12/13 03:48:36;;;;;;;;;9.25;7.25;;;;;10.69;76.60;102336.25;4999238;28;45474;-72
2021/12/13 03:51:09;;;;;;;;;10.25;9.50;;;;;10.60;76.33;102322.59;4998683;28;45403;-72
2021/12/13 03:53:35;;;;;;;;;8.00;6.75;;;;;10.65;76.52;102334.31;4999080;28;45270;-72
2021/12/13 03:56:23;;;;;;;;;10.50;8.25;;;;;10.68;77.13;102338.84;4998907;28;45322;-72
2021/12/13 03:58:54;;;;;;;;;12.00;10.75;;;;;10.60;77.18;102322.59;5012716;28;46253;-72
2021/12/13 04:01:27;;;;;;;;;15.50;10.50;;;;;10.62;77.14;102327.97;4998493;28;46490;-72
2021/12/13 04:03:57;;;;;;;;;10.00;10.00;;;;;10.53;76.39;102304.66;4999207;28;45211;-72
2021/12/13 04:06:23;;;;;;;;;13.50;10.00;;;;;10.68;76.39;102341.50;4998499;28;45409;-72
2021/12/13 04:08:57;;;;;;;;;11.25;11.00;;;;;10.65;76.30;102336.06;4998809;28;45413;-72
2021/12/13 04:11:25;;;;;;;;;15.00;10.00;;;;;10.68;76.79;102346.78;4998022;28;45501;-71
2021/12/13 04:13:59;;;;;;;;;9.00;9.00;;;;;10.68;76.04;102341.50;4999033;28;45313;-72
2021/12/13 04:16:49;;;;;;;;;11.50;10.50;;;;;10.45;77.01;102306.00;4998314;28;45277;-72
2021/12/13 04:19:23;;;;;;;;;13.25;11.00;;;;;10.62;76.67;102344.75;4992337;28;45408;-72
2021/12/13 04:21:59;;;;;;;;;29.25;24.00;;;;;10.63;76.99;102341.25;4998293;28;45705;-72
2021/12/13 04:24:48;;;;;;;;;17.00;13.75;;;;;10.63;76.37;102349.19;4998540;28;45234;-72
2021/12/13 04:27:28;;;;;;;;;16.50;12.25;;;;;10.61;76.09;102336.72;4991581;28;45461;-71
2021/12/13 04:29:58;;;;;;;;;18.50;16.00;;;;;10.55;75.86;102329.41;4998931;28;45273;-71
2021/12/13 04:32:34;;;;;;;;;10.00;7.25;;;;;10.54;76.28;102327.59;4997893;28;45381;-71
2021/12/13 04:35:03;;;;;;;;;12.75;10.00;;;;;10.56;76.30;102331.22;4997445;28;45733;-72
2021/12/13 04:37:34;;;;;;;;;21.00;14.25;;;;;10.63;76.17;102332.44;4990956;28;45259;-72
2021/12/13 04:40:06;;;;;;;;;14.75;13.75;;;;;10.63;76.81;102340.38;4998424;28;45428;-72
2021/12/13 04:42:32;;;;;;;;;22.00;20.25;;;;;10.58;76.41;102324.25;4997723;28;46629;-72
2021/12/13 04:44:57;;;;;;;;;22.75;22.75;;;;;10.67;75.82;102348.53;4998549;28;45261;-73
2021/12/13 04:47:37;;;;;;;;;11.75;10.75;;;;;10.37;76.10;102296.78;5001528;28;45353;-72
2021/12/13 04:50:14;;;;;;;;;12.00;11.00;;;;;10.62;76.53;102347.41;5002058;28;45368;-72
2021/12/13 04:52:41;;;;;;;;;12.25;12.00;;;;;10.51;76.08;102328.34;4993916;28;46923;-72
2021/12/13 04:55:12;;;;;;;;;14.00;13.00;;;;;10.59;75.88;102356.94;5017013;28;45507;-72
2021/12/13 04:57:40;;;;;;;;;14.25;12.00;;;;;10.60;75.51;102356.97;4994784;28;45387;-72
2021/12/13 05:00:14;;;;;;;;;15.50;14.50;;;;;10.47;76.03;102336.97;4998059;28;45571;-72
2021/12/13 05:02:46;;;;;;;;;15.25;13.00;;;;;10.56;75.77;102356.75;5000954;28;45613;-72
2021/12/13 05:05:13;;;;;;;;;15.75;13.50;;;;;10.54;75.61;102361.97;4991453;28;45251;-73
2021/12/13 05:07:41;;;;;;;;;11.50;10.00;;;;;10.45;75.49;102343.03;5000962;28;45249;-73
2021/12/13 05:10:07;;;;;;;;;13.50;9.25;;;;;10.51;75.65;102362.72;5001407;28;45468;-73
2021/12/13 05:12:32;;;;;;;;;18.00;14.75;;;;;10.47;75.42;102358.13;5000681;28;46736;-73
2021/12/13 05:15:11;;;;;;;;;13.25;10.50;;;;;10.45;75.61;102358.88;5001645;28;45334;-73
2021/12/13 05:17:41;;;;;;;;;16.00;13.00;;;;;10.35;75.88;102336.34;5001092;28;45305;-73
2021/12/13 05:20:10;;;;;;;;;7.75;7.75;;;;;10.43;76.24;102353.50;4987551;28;45553;-73
2021/12/13 05:22:47;;;;;;;;;13.00;9.75;;;;;10.45;75.46;102350.94;4991093;28;48648;-73
2021/12/13 05:25:21;;;;;;;;;21.00;16.50;;;;;10.44;75.99;102352.66;4989920;28;45330;-72
2021/12/13 05:27:46;;;;;;;;;18.75;15.75;;;;;10.33;75.83;102323.88;5000762;28;45559;-72
2021/12/13 05:30:19;;;;;;;;;36.25;29.75;;;;;10.56;75.00;102365.59;5016333;28;45776;-71
2021/12/13 05:32:53;;;;;;;;;12.00;12.00;;;;;10.50;75.85;102365.28;5000772;28;45392;-72
2021/12/13 05:35:42;;;;;;;;;18.75;13.00;;;;;10.44;76.34;102355.31;5001547;28;45390;-71
2021/12/13 05:38:22;;;;;;;;;11.50;10.00;;;;;10.37;76.17;102352.31;5001183;28;45313;-71
2021/12/13 05:40:47;;;;;;;;;14.00;14.00;;;;;10.49;76.72;102371.41;5000451;28;45293;-71
2021/12/13 05:43:18;;;;;;;;;12.25;11.25;;;;;10.48;75.49;102372.25;5014214;28;46409;-71
2021/12/13 05:45:50;;;;;;;;;13.50;11.00;;;;;10.40;75.76;102347.16;5000803;28;45598;-71
2021/12/13 05:48:37;;;;;;;;;15.25;13.50;;;;;10.44;75.23;102360.59;4999576;28;45475;-72
2021/12/13 05:51:07;;;;;;;;;15.25;12.25;;;;;10.51;76.42;102367.13;5000746;28;45445;-72
2021/12/13 05:53:44;;;;;;;;;12.25;11.75;;;;;10.30;75.65;102335.22;4996936;28;45385;-72
2021/12/13 05:56:15;;;;;;;;;13.75;10.25;;;;;10.51;75.91;102367.13;4997463;28;46139;-71
2021/12/13 05:58:51;;;;;;;;;14.00;12.75;;;;;10.40;75.44;102355.09;5000023;28;45264;-72
2021/12/13 06:01:20;;;;;;;;;12.50;12.50;;;;;10.49;75.89;102366.13;5000216;28;45494;-71
2021/12/13 06:04:11;;;;;;;;;15.00;11.75;;;;;10.46;76.41;102369.50;4999824;28;45500;-71
2021/12/13 06:06:52;;;;;;;;;13.75;12.75;;;;;10.39;76.77;102356.84;4999754;28;45402;-71
2021/12/13 06:09:39;;;;;;;;;16.50;13.00;;;;;10.41;75.96;102370.13;5000742;28;45389;-71
2021/12/13 06:12:09;;;;;;;;;10.25;7.25;;;;;10.40;75.91;102365.66;4999924;28;45318;-72
2021/12/13 06:14:35;;;;;;;;;10.00;8.75;;;;;10.38;76.16;102359.38;5003240;28;47221;-71
2021/12/13 06:17:00;;;;;;;;;13.25;11.75;;;;;10.41;75.52;102370.13;5000010;28;45352;-71
2021/12/13 06:19:31;;;;;;;;;12.75;11.75;;;;;10.38;76.16;102360.28;5000748;28;45355;-72
2021/12/13 06:22:11;;;;;;;;;13.50;12.50;;;;;10.44;76.50;102364.97;5000141;28;45443;-71
2021/12/13 06:24:51;;;;;;;;;14.50;12.00;;;;;10.41;76.34;102352.50;5000411;28;46650;-72
2021/12/13 06:27:25;;;;;;;;;10.50;10.50;;;;;10.46;75.67;102372.16;4997795;28;45434;-71
2021/12/13 06:29:59;;;;;;;;;16.25;13.00;;;;;10.36;74.96;102351.38;5000831;28;45361;-71
2021/12/13 06:32:33;;;;;;;;;12.75;11.00;;;;;10.40;75.91;102358.63;4999313;28;45234;-71
2021/12/13 06:35:19;;;;;;;;;15.00;13.75;;;;;10.39;75.38;102367.41;5000294;28;45649;-71
2021/12/13 06:37:45;;;;;;;;;12.75;9.75;;;;;10.30;75.25;102359.00;4994613;28;45517;-73
2021/12/13 06:40:19;;;;;;;;;13.00;10.75;;;;;10.36;75.14;102368.97;4999482;28;45307;-71
2021/12/13 06:42:44;;;;;;;;;14.50;11.75;;;;;10.25;74.96;102352.53;4999175;28;45440;-71
2021/12/13 06:45:23;;;;;;;;;10.00;9.00;;;;;10.27;76.33;102356.19;4999583;28;45332;-71
2021/12/13 06:47:52;;;;;;;;;13.00;11.00;;;;;10.26;75.34;102370.22;4998004;28;46599;-71
2021/12/13 06:50:24;;;;;;;;;11.00;11.00;;;;;10.28;75.65;102369.50;5013419;28;45265;-72
2021/12/13 06:52:50;;;;;;;;;10.00;9.00;;;;;10.19;76.06;102345.19;4997791;28;45497;-69
2021/12/13 06:55:19;;;;;;;;;14.50;10.00;;;;;10.24;76.01;102361.31;4999709;28;45345;-69
2021/12/13 06:57:56;;;;;;;;;11.25;11.25;;;;;10.29;76.03;102367.78;4999527;28;45428;-69
2021/12/13 07:00:22;;;;;;;;;10.75;9.00;;;;;10.30;75.97;102356.34;5000354;28;45221;-69
2021/12/13 07:03:11;;;;;;;;;12.25;11.50;;;;;10.18;75.42;102346.03;4999506;28;45254;-70
2021/12/13 07:05:45;;;;;;;;;9.75;9.25;;;;;10.18;75.60;102356.63;4999567;28;46581;-69
2021/12/13 07:08:19;;;;;;;;;10.50;10.50;;;;;10.19;75.46;102361.06;4998272;28;45365;-69
2021/12/13 07:10:59;;;;;;;;;9.25;9.25;;;;;10.17;75.48;102367.13;4997941;28;45304;-69
2021/12/13 07:13:42;;;;;;;;;13.50;9.75;;;;;10.23;75.22;102375.34;4998067;28;45313;-69
2021/12/13 07:16:14;;;;;;;;;8.50;8.50;;;;;10.24;75.78;102370.13;4998232;28;45428;-70
2021/12/13 07:18:52;;;;;;;;;11.00;10.75;;;;;10.26;75.55;102368.47;4998997;28;45399;-69
2021/12/13 07:21:26;;;;;;;;;11.25;9.25;;;;;10.16;75.55;102352.97;4999016;28;45267;-70
2021/12/13 07:24:08;;;;;;;;;11.00;11.00;;;;;10.21;75.50;102359.41;4999833;28;45499;-72
2021/12/13 07:26:36;;;;;;;;;13.75;11.50;;;;;10.26;74.93;102370.22;5002683;28;47543;-70
2021/12/13 07:29:07;;;;;;;;;9.75;9.75;;;;;10.20;75.21;102362.88;4999782;28;45416;-69
2021/12/13 07:31:33;;;;;;;;;9.00;7.25;;;;;10.23;74.90;102368.31;4999432;28;45372;-69
2021/12/13 07:34:20;;;;;;;;;12.00;9.25;;;;;10.21;75.83;102367.34;4999674;28;45497;-71
2021/12/13 07:36:59;;;;;;;;;6.00;6.00;;;;;10.30;74.68;102383.69;4994642;28;47253;-69
2021/12/13 07:39:29;;;;;;;;;9.00;6.75;;;;;10.24;74.60;102372.78;4998469;28;45370;-70
2021/12/13 07:42:00;;;;;;;;;9.00;8.00;;;;;10.25;74.80;102373.69;4998330;28;44826;-70
2021/12/13 07:44:34;;;;;;;;;7.75;7.00;;;;;10.33;74.63;102389.97;4999419;28;45753;-70
2021/12/13 07:47:05;;;;;;;;;6.50;6.00;;;;;10.25;74.64;102379.91;4998346;28;46141;-71
2021/12/13 07:49:37;;;;;;;;;7.50;6.00;;;;;10.19;74.80;102373.38;4999460;28;45396;-70
2021/12/13 07:52:05;;;;;;;;;6.00;5.00;;;;;10.13;74.57;102350.19;4998953;28;45293;-70
2021/12/13 07:54:42;;;;;;;;;5.00;4.50;;;;;10.25;74.24;102374.59;4999277;28;45508;-70
2021/12/13 07:57:21;;;;;;;;;6.00;5.25;;;;;10.30;75.00;102383.69;4998451;28;45618;-70
2021/12/13 07:59:48;;;;;;;;;4.25;4.25;;;;;10.30;74.45;102383.69;4999334;28;45338;-70
2021/12/13 08:02:27;;;;;;;;;7.00;5.25;;;;;10.25;74.37;102371.97;4998779;28;45298;-70
2021/12/13 08:05:08;;;;;;;;;5.00;5.00;;;;;10.29;74.72;102379.25;4992584;28;45461;-70
2021/12/13 08:07:44;;;;;;;;;7.75;6.00;;;;;10.34;74.96;102383.88;4997998;28;45415;-70
2021/12/13 08:10:30;;;;;;;;;6.50;6.50;;;;;10.36;74.31;102382.19;4998896;28;45290;-69
2021/12/13 08:13:02;;;;;;;;;7.50;5.75;;;;;10.33;74.97;102374.09;4998163;28;45413;-69
2021/12/13 08:15:41;;;;;;;;;8.50;7.00;;;;;10.32;75.17;102364.38;4999137;28;45345;-69
2021/12/13 08:18:20;;;;;;;;;8.25;7.75;;;;;10.41;74.32;102384.22;4987827;28;45677;-69
2021/12/13 08:20:50;;;;;;;;;6.50;5.25;;;;;10.29;74.99;102360.75;4999656;28;45263;-69
2021/12/13 08:23:20;;;;;;;;;6.50;6.00;;;;;10.44;74.75;102380.84;5002201;28;45342;-69
2021/12/13 08:25:49;;;;;;;;;6.75;6.75;;;;;10.42;74.56;102375.50;5001818;28;45314;-69
2021/12/13 08:28:18;;;;;;;;;9.25;5.50;;;;;10.37;74.77;102369.06;5017548;28;47314;-69
2021/12/13 08:30:55;;;;;;;;;9.00;6.25;;;;;10.47;74.48;102388.91;5001182;28;45361;-70
2021/12/13 08:33:46;;;;;;;;;5.50;4.25;;;;;10.47;74.95;102388.91;5000790;28;45645;-70
2021/12/13 08:36:35;;;;;;;;;9.00;7.50;;;;;10.39;74.70;102374.41;5001021;28;45469;-70
2021/12/13 08:39:07;;;;;;;;;7.50;7.50;;;;;10.50;74.35;102391.72;5017203;28;47525;-70
2021/12/13 08:41:44;;;;;;;;;5.50;4.75;;;;;10.50;75.11;102387.38;5001548;28;45334;-71
2021/12/13 08:44:09;;;;;;;;;5.00;5.00;;;;;10.52;74.11;102390.97;5000671;28;45433;-71
2021/12/13 08:47:09;;;;;;;;;10.75;9.75;;;;;10.42;74.64;102377.19;5001788;28;45441;-71
2021/12/13 08:49:50;;;;;;;;;11.25;7.00;;;;;10.48;74.52;102380.19;4996476;28;45117;-71
2021/12/13 08:52:27;;;;;;;;;4.50;4.50;;;;;10.59;74.07;102402.78;5001549;28;45289;-71
2021/12/13 08:55:11;;;;;;;;;8.75;6.75;;;;;10.61;73.44;102401.09;5000368;28;45282;-71
2021/12/13 08:57:40;;;;;;;;;2.00;0.00;;;;;10.57;73.33;102404.44;4995254;28;47030;-71
2021/12/13 09:00:14;;;;;;;;;15.25;12.50;;;;;10.56;73.92;102396.41;5001810;28;45466;-71
2021/12/13 09:02:50;;;;;;;;;6.00;6.00;;;;;10.56;73.34;102393.75;4997043;28;45346;-72
2021/12/13 09:05:39;;;;;;;;;10.25;5.00;;;;;10.46;74.51;102397.69;5000171;28;45490;-71
2021/12/13 09:08:13;;;;;;;;;13.50;11.00;;;;;10.34;74.69;102400.63;5001464;28;45334;-71
2021/12/13 09:10:41;;;;;;;;;8.50;6.75;;;;;10.36;74.07;102412.16;4999845;28;48434;-71
2021/12/13 09:13:07;;;;;;;;;11.00;11.00;;;;;10.39;74.13;102408.78;4996299;28;45402;-71
2021/12/13 09:15:36;;;;;;;;;14.00;11.50;;;;;10.46;74.74;102405.63;5001945;28;45349;-71
2021/12/13 09:18:04;;;;;;;;;33.75;25.50;;;;;10.45;74.19;102398.53;5016621;28;46593;-71
2021/12/13 09:20:37;;;;;;;;;17.75;16.25;;;;;10.46;74.71;102406.53;5001213;28;46597;-72
2021/12/13 09:23:12;;;;;;;;;29.75;26.25;;;;;10.54;74.13;102417.50;5015812;28;45309;-71
2021/12/13 09:25:45;;;;;;;;;19.00;15.50;;;;;10.57;74.45;102420.28;5001135;28;45250;-70
2021/12/13 09:28:19;;;;;;;;;9.50;8.50;;;;;10.44;74.37;102391.41;5000615;28;45606;-71
2021/12/13 09:30:50;;;;;;;;;10.50;10.50;;;;;10.60;74.20;102423.09;5016265;28;47996;-71
2021/12/13 09:33:23;;;;;;;;;64.25;50.75;;;;;10.58;73.56;102422.09;4999802;28;45560;-71
2021/12/13 09:36:03;;;;;;;;;15.25;11.25;;;;;10.53;74.75;102418.34;4999689;28;45289;-71
2021/12/13 09:38:42;;;;;;;;;35.25;31.00;;;;;10.60;74.05;102422.19;5000446;28;45440;-71
2021/12/13 09:41:32;;;;;;;;;11.25;9.75;;;;;10.60;74.11;102420.44;4987442;28;46730;-71
2021/12/13 09:44:04;;;;;;;;;21.25;20.00;;;;;10.57;74.03;102401.78;4988452;28;45412;-71
2021/12/13 09:46:44;;;;;;;;;13.75;12.25;;;;;10.60;73.95;102419.53;5000631;28;45400;-71
2021/12/13 09:49:34;;;;;;;;;17.75;13.75;;;;;10.43;74.90;102397.53;5000450;28;45457;-71
2021/12/13 09:52:06;;;;;;;;;14.50;11.00;;;;;10.47;74.37;102413.66;5000324;28;45455;-71
2021/12/13 09:54:37;;;;;;;;;20.75;19.75;;;;;10.44;74.19;102407.28;5000064;28;45400;-71
2021/12/13 09:57:08;;;;;;;;;10.00;8.50;;;;;10.36;74.25;102411.25;4995059;28;45627;-71
2021/12/13 09:59:39;;;;;;;;;18.00;15.25;;;;;10.30;74.35;102410.13;5000971;28;46072;-71
2021/12/13 10:02:15;;;;;;;;;8.00;6.00;;;;;10.14;75.05;102386.38;4995668;28;47061;-71
2021/12/13 10:04:43;;;;;;;;;10.50;7.25;;;;;10.35;73.66;102422.69;5016029;28;45372;-71
2021/12/13 10:07:18;;;;;;;;;4.00;4.00;;;;;10.39;74.34;102425.56;5000581;28;45334;-72
2021/12/13 10:09:52;;;;;;;;;22.00;18.25;;;;;10.33;73.92;102411.09;5000579;28;45242;-71
2021/12/13 10:12:22;;;;;;;;;5.00;5.00;;;;;10.35;73.82;102410.38;4992368;28;47463;-71
2021/12/13 10:14:56;;;;;;;;;9.00;6.75;;;;;10.24;73.45;102425.63;4997859;28;45274;-71
2021/12/13 10:17:25;;;;;;;;;8.25;8.25;;;;;10.11;73.79;102414.34;5000376;28;45555;-71
2021/12/13 10:19:55;;;;;;;;;12.25;11.75;;;;;10.02;73.62;102402.47;5000653;28;45322;-71
2021/12/13 10:22:24;;;;;;;;;5.75;5.75;;;;;10.06;73.12;102414.13;5000036;28;45290;-71
2021/12/13 10:24:55;;;;;;;;;8.00;6.00;;;;;9.92;72.82;102413.41;4999965;28;45487;-72
2021/12/13 10:27:23;;;;;;;;;9.50;4.75;;;;;9.84;73.09;102396.22;5000291;28;45432;-72
2021/12/13 10:29:55;;;;;;;;;4.25;4.25;;;;;9.93;72.62;102417.84;5000488;28;45450;-72
2021/12/13 10:32:28;;;;;;;;;19.50;15.50;;;;;9.86;73.75;102399.88;4999741;28;46283;-71
2021/12/13 10:34:58;;;;;;;;;4.50;4.50;;;;;9.85;71.89;102412.13;5000305;28;45139;-71
2021/12/13 10:37:36;;;;;;;;;9.50;5.75;;;;;9.80;72.89;102394.22;5014974;28;45361;-72
2021/12/13 10:40:17;;;;;;;;;6.75;4.50;;;;;9.93;73.51;102422.22;5000135;28;45278;-71
2021/12/13 10:42:49;;;;;;;;;5.00;5.00;;;;;9.76;72.66;102403.75;4999641;28;45340;-72
2021/12/13 10:45:20;;;;;;;;;8.00;4.50;;;;;9.91;72.59;102418.59;4994022;28;45282;-70
2021/12/13 10:47:51;;;;;;;;;6.00;6.00;;;;;9.92;72.58;102417.78;4999825;28;45353;-71
2021/12/13 10:50:28;;;;;;;;;8.75;8.50;;;;;9.91;72.83;102416.84;5000363;28;45324;-72
2021/12/13 10:52:54;;;;;;;;;7.00;7.00;;;;;9.96;72.31;102419.75;4999092;28;45405;-72
2021/12/13 10:55:35;;;;;;;;;10.25;10.00;;;;;9.71;71.95;102391.13;5002018;28;45298;-71
2021/12/13 10:58:03;;;;;;;;;10.50;8.00;;;;;9.79;72.61;102411.81;4999686;28;45425;-71
2021/12/13 11:00:42;;;;;;;;;9.25;8.00;;;;;9.80;72.25;102412.72;4999997;28;45416;-71
2021/12/13 11:03:12;;;;;;;;;10.25;8.00;;;;;9.77;72.92;102394.06;4999657;28;45441;-72
2021/12/13 11:05:39;;;;;;;;;8.00;5.00;;;;;9.75;72.87;102398.41;4998273;28;45756;-71
2021/12/13 11:08:07;;;;;;;;;6.75;6.00;;;;;9.63;72.48;102395.97;4997271;28;45313;-72
2021/12/13 11:10:55;;;;;;;;;6.00;5.75;;;;;9.66;72.98;102404.06;4999069;28;45326;-71
2021/12/13 11:13:27;;;;;;;;;6.50;6.50;;;;;9.60;72.74;102398.47;4997181;28;45266;-71
2021/12/13 11:15:58;;;;;;;;;8.00;6.75;;;;;9.68;72.25;102412.06;4995060;28;45583;-71
2021/12/13 11:18:28;;;;;;;;;5.75;5.75;;;;;9.65;72.83;102404.91;5014068;28;45374;-71
2021/12/13 11:20:59;;;;;;;;;8.00;6.00;;;;;9.71;72.75;102406.97;4998995;28;45160;-72
2021/12/13 11:23:24;;;;;;;;;11.25;9.00;;;;;9.79;72.82;102409.19;4999337;28;46391;-71
2021/12/13 11:25:57;;;;;;;;;7.00;7.00;;;;;9.80;71.82;102404.78;4998143;28;45365;-72
2021/12/13 11:28:24;;;;;;;;;10.25;8.50;;;;;9.82;71.92;102406.69;4997612;28;45322;-71
2021/12/13 11:30:51;;;;;;;;;8.25;7.50;;;;;9.85;72.62;102409.50;4998872;28;45329;-73
2021/12/13 11:33:37;;;;;;;;;6.50;5.00;;;;;9.79;72.04;102409.19;4999133;28;45405;-71
2021/12/13 11:36:40;;;;;;;;;6.25;6.25;;;;;9.80;72.79;102407.44;4998682;28;45287;-71
2021/12/13 11:39:09;;;;;;;;;4.75;4.75;;;;;9.85;72.82;102406.84;4999010;28;45294;-73
2021/12/13 11:42:05;;;;;;;;;6.25;5.00;;;;;9.90;72.61;102404.47;4998603;28;45297;-73
2021/12/13 11:45:03;;;;;;;;;15.25;11.25;;;;;9.91;72.31;102406.28;4998998;28;45650;-72
2021/12/13 11:47:58;;;;;;;;;9.00;8.50;;;;;9.93;71.99;102399.34;4998546;28;45400;-73
2021/12/13 11:51:00;;;;;;;;;10.75;10.75;;;;;9.97;72.15;102398.69;4998439;28;45511;-72
2021/12/13 11:53:59;;;;;;;;;8.25;8.25;;;;;10.02;72.52;102391.91;4998361;28;45444;-73
2021/12/13 11:56:46;;;;;;;;;6.25;6.25;;;;;10.03;73.01;102388.44;4994887;28;48109;-73
2021/12/13 11:59:36;;;;;;;;;14.50;10.25;;;;;10.03;72.38;102384.91;5006359;28;46121;-71
2021/12/13 12:02:40;;;;;;;;;11.75;11.00;;;;;9.99;72.05;102382.91;4998720;28;45428;-71